TRPG

John A. Osborne Airport

Airport
ICAO code
TRPG
IATA Code
MNI
Summary
ICAO Region
CARSAM
ICAO Territory
Location

Gerald's, Montserrat

Serving
Montserrat
Elevation
550 ft
Coordinates
16° 47' 29" N , 62° 11' 36" W
KCC
Metar
TRPG 191200Z 11007KT 9999 FEW016 27/25 Q1016

John A. Osborne Airport is a small airport located near the village of Gerald's on the island of Montserrat, a British Overseas Territory in the Caribbean.

Climatology

Tropical savannah climate (Köppen climate classification Aw)

Runways

Designator Length Width Surface Rops
10/28 600 0 ASP No/No

Airport map

Aerial View

SKYbrary Partners:

Safety knowledge contributed by: